createdAt,value
2023-02-23T00:01:54.497Z,8.50
2023-02-23T00:04:23.728Z,8.07
2023-02-23T00:06:55.231Z,10.05
2023-02-23T00:09:23.153Z,7.82
2023-02-23T00:11:55.890Z,7.93
2023-02-23T00:14:31.361Z,8.60
2023-02-23T00:17:00.021Z,8.98
2023-02-23T00:19:27.675Z,6.65
2023-02-23T00:21:55.045Z,8.38
2023-02-23T00:24:23.515Z,7.90
2023-02-23T00:26:51.596Z,8.85
2023-02-23T00:29:22.223Z,9.77
2023-02-23T00:31:50.802Z,9.43
2023-02-23T00:34:21.903Z,7.05
2023-02-23T00:36:56.931Z,10.73
2023-02-23T00:39:29.342Z,8.00
2023-02-23T00:42:03.595Z,8.93
2023-02-23T00:44:32.777Z,8.55
2023-02-23T00:47:00.960Z,9.13
2023-02-23T00:49:28.210Z,7.07
2023-02-23T00:51:55.475Z,8.10
2023-02-23T00:54:23.041Z,9.23
2023-02-23T00:56:50.562Z,8.75
2023-02-23T00:59:19.336Z,8.88
2023-02-23T01:01:46.463Z,10.75
2023-02-23T01:04:13.837Z,8.68
2023-02-23T01:06:41.766Z,11.48
2023-02-23T01:09:13.706Z,8.90
2023-02-23T01:11:41.993Z,7.85
2023-02-23T01:14:10.653Z,9.73
2023-02-23T01:16:39.039Z,8.90
2023-02-23T01:19:07.097Z,8.38
2023-02-23T01:21:38.242Z,10.07
2023-02-23T01:24:06.366Z,9.10
2023-02-23T01:26:38.244Z,7.45
2023-02-23T01:29:11.374Z,9.77
2023-02-23T01:31:41.242Z,10.07
2023-02-23T01:34:11.959Z,7.03
2023-02-23T01:36:41.091Z,11.27
2023-02-23T01:39:12.307Z,12.23
2023-02-23T01:41:44.614Z,9.82
2023-02-23T01:44:15.081Z,13.77
2023-02-23T01:46:45.620Z,11.82
2023-02-23T01:49:34.649Z,10.23
2023-02-23T01:52:11.072Z,11.15
2023-02-23T01:54:43.845Z,10.73
2023-02-23T01:57:14.637Z,9.98
2023-02-23T01:59:45.143Z,13.05
2023-02-23T02:02:13.722Z,13.75
2023-02-23T02:04:46.300Z,10.68
2023-02-23T02:07:17.223Z,12.07
2023-02-23T02:10:09.488Z,12.18
2023-02-23T02:12:58.157Z,10.40
2023-02-23T02:15:33.193Z,9.43
2023-02-23T02:18:26.685Z,10.48
2023-02-23T02:21:24.584Z,7.97
2023-02-23T02:24:15.267Z,13.23
2023-02-23T02:26:52.625Z,10.18
2023-02-23T02:29:26.405Z,9.80
2023-02-23T02:32:12.099Z,13.60
2023-02-23T02:35:07.737Z,11.90
2023-02-23T02:38:12.853Z,11.68
2023-02-23T02:41:13.704Z,9.68
2023-02-23T02:43:51.291Z,10.98
2023-02-23T02:46:25.262Z,11.13
2023-02-23T02:49:31.650Z,11.48
2023-02-23T02:52:11.859Z,11.57
2023-02-23T02:54:48.875Z,13.93
2023-02-23T02:57:18.381Z,11.73
2023-02-23T03:00:06.865Z,10.75
2023-02-23T03:02:56.134Z,14.05
2023-02-23T03:05:47.790Z,12.13
2023-02-23T03:08:40.994Z,10.98
2023-02-23T03:11:31.884Z,10.45
2023-02-23T03:14:53.986Z,14.30
2023-02-23T03:17:55.917Z,10.45
2023-02-23T03:23:42.409Z,11.15
2023-02-23T03:26:40.325Z,12.60
2023-02-23T03:29:29.520Z,11.68
2023-02-23T03:32:22.904Z,11.25
2023-02-23T03:35:22.640Z,12.68
2023-02-23T03:38:17.403Z,15.18
2023-02-23T03:41:07.281Z,11.63
2023-02-23T03:44:00.580Z,14.25
2023-02-23T03:46:50.269Z,10.75
2023-02-23T03:49:37.745Z,11.25
2023-02-23T03:52:35.541Z,9.75
2023-02-23T03:55:26.482Z,12.52
2023-02-23T03:58:19.795Z,13.85
2023-02-23T04:01:08.697Z,10.48
2023-02-23T04:04:00.373Z,9.65
2023-02-23T04:06:51.634Z,15.23
2023-02-23T04:09:37.375Z,13.25
2023-02-23T04:12:34.484Z,11.10
2023-02-23T04:15:19.915Z,13.23
2023-02-23T04:17:47.224Z,13.50
2023-02-23T04:20:14.732Z,12.18
2023-02-23T04:22:41.710Z,11.45
2023-02-23T04:25:10.058Z,11.85
2023-02-23T04:27:37.207Z,12.85
2023-02-23T04:30:05.907Z,12.82
2023-02-23T04:32:32.886Z,14.10
2023-02-23T04:35:00.539Z,10.00
2023-02-23T04:37:27.530Z,10.48
2023-02-23T04:39:54.859Z,13.40
2023-02-23T04:42:21.681Z,9.82
2023-02-23T04:44:49.896Z,9.55
2023-02-23T04:47:17.574Z,11.82
2023-02-23T04:49:45.207Z,12.93
2023-02-23T04:52:12.783Z,14.40
2023-02-23T04:54:41.129Z,12.32
2023-02-23T04:57:09.005Z,11.82
2023-02-23T04:59:36.988Z,12.07
2023-02-23T05:02:04.337Z,10.30
2023-02-23T05:04:35.425Z,16.00
2023-02-23T05:07:03.895Z,11.43
2023-02-23T05:09:31.348Z,9.93
2023-02-23T05:11:58.772Z,11.43
2023-02-23T05:14:26.201Z,11.75
2023-02-23T05:16:53.569Z,9.52
2023-02-23T05:19:21.555Z,10.85
2023-02-23T05:21:50.635Z,10.27
2023-02-23T05:24:18.925Z,8.20
2023-02-23T05:26:46.514Z,10.88
2023-02-23T05:29:14.297Z,8.50
2023-02-23T05:31:42.560Z,13.15
2023-02-23T05:34:10.365Z,9.13
2023-02-23T05:36:38.340Z,10.90
2023-02-23T05:39:05.569Z,11.73
2023-02-23T05:41:32.906Z,10.75
2023-02-23T05:44:00.414Z,14.07
2023-02-23T05:46:28.243Z,9.30
2023-02-23T05:49:00.893Z,12.23
2023-02-23T05:51:30.061Z,9.82
2023-02-23T05:53:57.973Z,13.60
2023-02-23T05:56:25.619Z,10.85
2023-02-23T05:58:57.864Z,10.27
2023-02-23T06:01:26.350Z,10.23
2023-02-23T06:03:53.809Z,10.02
2023-02-23T06:06:22.365Z,10.73
2023-02-23T06:08:50.114Z,7.80
2023-02-23T06:11:18.003Z,8.70
2023-02-23T06:13:45.625Z,8.93
2023-02-23T06:16:13.002Z,12.38
2023-02-23T06:18:40.979Z,10.82
2023-02-23T06:21:08.678Z,14.45
2023-02-23T06:23:36.293Z,11.45
2023-02-23T06:26:03.332Z,10.77
2023-02-23T06:28:30.704Z,12.70
2023-02-23T06:30:57.852Z,11.75
2023-02-23T06:33:25.667Z,9.65
2023-02-23T06:35:54.791Z,19.20
2023-02-23T06:38:22.248Z,9.55
2023-02-23T06:40:49.514Z,6.45
2023-02-23T06:43:17.134Z,8.43
2023-02-23T06:45:46.092Z,11.20
2023-02-23T06:48:13.254Z,11.15
2023-02-23T06:50:40.141Z,9.75
2023-02-23T06:53:07.473Z,12.27
2023-02-23T06:55:34.457Z,9.10
2023-02-23T06:58:02.177Z,11.38
2023-02-23T07:00:30.562Z,13.90
2023-02-23T07:02:58.363Z,10.77
2023-02-23T07:05:26.332Z,12.68
2023-02-23T07:07:53.715Z,8.07
2023-02-23T07:10:21.043Z,9.02
2023-02-23T07:12:48.438Z,15.35
2023-02-23T07:15:18.124Z,9.93
2023-02-23T07:17:48.796Z,11.85
2023-02-23T07:20:16.218Z,11.30
2023-02-23T07:22:43.551Z,11.15
2023-02-23T07:25:11.203Z,10.10
2023-02-23T07:27:38.675Z,9.77
2023-02-23T07:30:06.203Z,9.13
2023-02-23T07:32:34.094Z,9.70
2023-02-23T07:35:03.266Z,10.55
2023-02-23T07:37:30.761Z,13.77
2023-02-23T07:39:59.481Z,12.20
2023-02-23T07:42:28.634Z,12.00
2023-02-23T07:44:56.276Z,9.23
2023-02-23T07:47:30.859Z,8.45
2023-02-23T07:49:59.815Z,10.30
2023-02-23T07:52:27.389Z,14.85
2023-02-23T07:54:54.833Z,14.07
2023-02-23T07:57:23.980Z,16.35
2023-02-23T07:59:51.965Z,15.98
2023-02-23T08:02:19.646Z,8.93
2023-02-23T08:04:47.998Z,12.95
2023-02-23T08:07:15.538Z,11.93
2023-02-23T08:09:42.866Z,12.25
2023-02-23T08:12:10.580Z,12.63
2023-02-23T08:14:37.508Z,10.98
2023-02-23T08:17:04.743Z,13.63
2023-02-23T08:19:32.081Z,13.82
2023-02-23T08:21:59.735Z,10.95
2023-02-23T08:24:27.218Z,12.68
2023-02-23T08:26:54.550Z,12.52
2023-02-23T08:29:22.359Z,9.68
2023-02-23T08:31:51.745Z,9.63
2023-02-23T08:34:20.236Z,11.45
2023-02-23T08:36:47.674Z,11.43
2023-02-23T08:39:15.701Z,10.20
2023-02-23T08:41:42.900Z,11.70
2023-02-23T08:44:10.238Z,9.35
2023-02-23T08:46:37.929Z,12.43
2023-02-23T08:49:06.092Z,11.40
2023-02-23T08:51:35.077Z,9.63
2023-02-23T08:54:02.433Z,12.50
2023-02-23T08:56:30.792Z,15.38
2023-02-23T08:58:57.801Z,13.00
2023-02-23T09:01:25.300Z,12.18
2023-02-23T09:03:52.368Z,13.02
2023-02-23T09:06:22.398Z,14.45
2023-02-23T09:08:50.563Z,12.55
2023-02-23T09:11:18.723Z,11.82
2023-02-23T09:13:46.214Z,13.00
2023-02-23T09:16:13.783Z,17.83
2023-02-23T09:18:41.297Z,15.68
2023-02-23T09:21:19.397Z,10.80
2023-02-23T09:23:48.350Z,13.10
2023-02-23T09:26:18.060Z,14.77
2023-02-23T09:28:45.439Z,11.80
2023-02-23T09:31:16.151Z,15.40
2023-02-23T09:33:43.314Z,12.70
2023-02-23T09:36:19.741Z,11.15
2023-02-23T09:38:49.053Z,15.38
2023-02-23T09:41:25.336Z,15.68
2023-02-23T09:44:12.639Z,10.98
2023-02-23T09:47:14.152Z,18.08
2023-02-23T09:49:45.361Z,19.85
2023-02-23T09:52:20.811Z,17.40
2023-02-23T09:54:48.309Z,15.43
2023-02-23T09:57:21.505Z,13.00
2023-02-23T09:59:48.648Z,17.55
2023-02-23T10:02:32.333Z,13.20
2023-02-23T10:05:05.841Z,12.20
2023-02-23T10:07:51.457Z,21.63
2023-02-23T10:10:26.321Z,10.20
2023-02-23T10:13:42.104Z,14.15
2023-02-23T10:16:42.867Z,14.10
2023-02-23T10:19:23.206Z,13.15
2023-02-23T10:21:56.674Z,16.13
2023-02-23T10:24:45.452Z,17.08
2023-02-23T10:27:19.306Z,14.50
2023-02-23T10:29:51.717Z,17.83
2023-02-23T10:32:46.224Z,15.15
2023-02-23T10:35:19.912Z,16.77
2023-02-23T10:37:48.140Z,18.08
2023-02-23T10:40:23.024Z,12.27
2023-02-23T10:42:54.295Z,12.75
2023-02-23T10:45:24.811Z,15.57
2023-02-23T10:48:04.235Z,15.25
2023-02-23T10:50:33.151Z,15.02
2023-02-23T10:53:35.967Z,14.73
2023-02-23T10:56:15.993Z,11.13
2023-02-23T10:58:46.814Z,15.18
2023-02-23T11:01:32.443Z,11.85
2023-02-23T11:04:14.450Z,14.13
2023-02-23T11:06:43.814Z,13.57
2023-02-23T11:09:43.760Z,13.93
2023-02-23T11:12:43.394Z,11.73
2023-02-23T11:15:46.563Z,16.33
2023-02-23T11:18:34.031Z,17.45
2023-02-23T11:21:02.013Z,11.38
2023-02-23T11:23:35.841Z,21.65
2023-02-23T11:26:06.261Z,16.17
2023-02-23T11:28:42.674Z,13.10
2023-02-23T11:31:18.873Z,19.63
2023-02-23T11:33:47.969Z,13.95
2023-02-23T11:36:29.134Z,14.00
2023-02-23T11:41:44.331Z,14.80
2023-02-23T11:44:23.409Z,19.50
2023-02-23T11:46:52.177Z,11.98
2023-02-23T11:49:33.342Z,11.32
2023-02-23T11:52:00.543Z,14.02
2023-02-23T11:54:31.083Z,15.93
2023-02-23T11:56:58.889Z,14.63
2023-02-23T11:59:37.279Z,14.68
2023-02-23T12:02:15.862Z,12.60
2023-02-23T12:04:47.659Z,15.98
2023-02-23T12:07:41.864Z,13.70
2023-02-23T12:10:18.949Z,23.35
2023-02-23T12:13:16.371Z,13.63
2023-02-23T12:15:52.508Z,13.55
2023-02-23T12:18:34.869Z,22.70
2023-02-23T12:21:12.307Z,11.82
2023-02-23T12:23:43.591Z,14.50
2023-02-23T12:26:18.110Z,15.18
2023-02-23T12:28:54.402Z,10.90
2023-02-23T12:31:31.142Z,10.68
2023-02-23T12:34:05.235Z,15.90
2023-02-23T12:36:52.597Z,19.15
2023-02-23T12:39:25.755Z,10.25
2023-02-23T12:41:53.162Z,10.77
2023-02-23T12:44:35.092Z,14.25
2023-02-23T12:47:15.062Z,10.82
2023-02-23T12:49:48.015Z,13.55
2023-02-23T12:52:28.008Z,13.68
2023-02-23T12:54:55.354Z,11.80
2023-02-23T12:57:48.477Z,11.75
2023-02-23T13:00:24.213Z,18.13
2023-02-23T13:03:44.181Z,12.02
2023-02-23T13:06:23.264Z,18.40
2023-02-23T13:09:02.626Z,15.77
2023-02-23T13:11:47.666Z,13.43
2023-02-23T13:14:20.284Z,15.10
2023-02-23T13:17:01.407Z,9.63
2023-02-23T13:19:47.648Z,10.40
2023-02-23T13:22:30.821Z,11.75
2023-02-23T13:25:04.571Z,11.00
2023-02-23T13:27:40.628Z,10.25
2023-02-23T13:30:12.695Z,9.40
2023-02-23T13:35:20.490Z,16.20
2023-02-23T13:38:07.553Z,12.68
2023-02-23T13:41:10.374Z,11.80
2023-02-23T13:44:18.328Z,10.38
2023-02-23T13:46:59.459Z,16.77
2023-02-23T13:49:47.127Z,19.37
2023-02-23T13:52:33.280Z,14.82
2023-02-23T13:55:05.742Z,14.45
2023-02-23T13:57:35.897Z,12.15
2023-02-23T14:00:03.556Z,14.93
2023-02-23T14:02:41.368Z,16.30
2023-02-23T14:05:25.106Z,13.20
2023-02-23T14:08:07.711Z,21.25
2023-02-23T14:10:43.494Z,13.65
2023-02-23T14:13:13.529Z,16.17
2023-02-23T14:15:49.958Z,17.90
2023-02-23T14:18:26.170Z,12.82
2023-02-23T14:21:12.975Z,12.70
2023-02-23T14:24:18.107Z,14.32
2023-02-23T14:27:15.094Z,18.05
2023-02-23T14:30:21.650Z,11.65
2023-02-23T14:32:51.253Z,13.02
2023-02-23T14:35:34.684Z,18.70
2023-02-23T14:38:07.585Z,14.35
2023-02-23T14:40:41.083Z,20.77
2023-02-23T14:43:53.171Z,15.98
2023-02-23T14:46:24.027Z,17.10
2023-02-23T14:49:19.415Z,14.30
2023-02-23T14:51:48.726Z,15.25
2023-02-23T14:54:36.143Z,19.98
2023-02-23T14:57:25.777Z,12.00
2023-02-23T14:59:58.870Z,14.30
2023-02-23T15:02:29.239Z,16.73
2023-02-23T15:07:41.780Z,17.73
2023-02-23T15:10:24.493Z,21.58
2023-02-23T15:12:52.150Z,12.45
2023-02-23T15:15:23.743Z,12.75
2023-02-23T15:17:55.451Z,15.85
2023-02-23T15:20:28.913Z,14.88
2023-02-23T15:22:59.276Z,21.88
2023-02-23T15:25:35.614Z,12.25
2023-02-23T15:28:33.320Z,16.70
2023-02-23T15:31:02.390Z,16.13
2023-02-23T15:33:30.456Z,18.23
2023-02-23T15:36:09.454Z,18.08
2023-02-23T15:38:47.062Z,33.55
2023-02-23T15:41:33.139Z,12.88
2023-02-23T15:44:12.628Z,20.77
2023-02-23T15:46:41.707Z,15.07
2023-02-23T15:49:12.916Z,15.80
2023-02-23T15:51:50.622Z,20.33
2023-02-23T15:54:24.571Z,15.93
2023-02-23T15:56:57.300Z,23.75
2023-02-23T15:59:35.436Z,19.27
2023-02-23T16:02:04.493Z,21.05
2023-02-23T16:04:33.614Z,19.52
2023-02-23T16:07:14.793Z,21.92
2023-02-23T16:09:50.776Z,22.98
2023-02-23T16:12:25.059Z,26.42
2023-02-23T16:14:57.201Z,22.25
2023-02-23T16:17:27.065Z,21.35
2023-02-23T16:20:24.832Z,28.15
2023-02-23T16:22:53.815Z,21.00
2023-02-23T16:25:24.679Z,24.02
2023-02-23T16:28:03.547Z,24.00
2023-02-23T16:30:31.266Z,23.25
2023-02-23T16:33:21.792Z,24.80
2023-02-23T16:36:06.680Z,25.48
2023-02-23T16:38:55.533Z,27.48
2023-02-23T16:41:23.821Z,26.20
2023-02-23T16:43:53.678Z,26.17
2023-02-23T16:46:25.357Z,25.67
2023-02-23T16:48:52.387Z,23.70
2023-02-23T16:51:23.088Z,19.10
2023-02-23T16:53:52.516Z,22.23
2023-02-23T16:56:22.340Z,18.20
2023-02-23T16:58:57.375Z,21.67
2023-02-23T17:01:24.782Z,21.85
2023-02-23T17:03:54.312Z,42.10
2023-02-23T17:06:22.807Z,31.20
2023-02-23T17:08:58.098Z,41.42
2023-02-23T17:11:26.117Z,29.67
2023-02-23T17:13:53.202Z,35.03
2023-02-23T17:16:21.152Z,20.17
2023-02-23T17:18:49.001Z,46.47
2023-02-23T17:21:22.932Z,26.73
2023-02-23T17:23:51.483Z,19.25
2023-02-23T17:26:24.282Z,22.35
2023-02-23T17:28:53.986Z,22.35
2023-02-23T17:31:24.728Z,22.05
2023-02-23T17:33:53.658Z,22.45
2023-02-23T17:36:21.531Z,26.50
2023-02-23T17:38:49.006Z,22.17
2023-02-23T17:41:18.622Z,22.02
2023-02-23T17:43:46.085Z,22.15
2023-02-23T17:46:13.793Z,22.35
2023-02-23T17:48:44.872Z,30.40
2023-02-23T17:51:13.694Z,22.90
2023-02-23T17:53:40.908Z,25.88
2023-02-23T17:56:09.529Z,24.98
2023-02-23T17:58:37.821Z,24.20
2023-02-23T18:01:07.199Z,23.25
2023-02-23T18:03:36.827Z,20.85
2023-02-23T18:06:07.832Z,24.25
2023-02-23T18:08:35.725Z,24.60
2023-02-23T18:11:03.160Z,31.98
2023-02-23T18:13:30.906Z,22.45
2023-02-23T18:16:06.220Z,31.58
2023-02-23T18:18:33.214Z,26.38
2023-02-23T18:21:00.863Z,24.88
2023-02-23T18:23:32.497Z,22.95
2023-02-23T18:26:15.133Z,24.13
2023-02-23T18:28:44.513Z,22.73
2023-02-23T18:31:19.586Z,28.20
2023-02-23T18:33:53.010Z,24.88
2023-02-23T18:36:22.015Z,31.05
2023-02-23T18:38:49.260Z,26.85
2023-02-23T18:41:16.981Z,22.27
2023-02-23T18:43:43.935Z,26.05
2023-02-23T18:46:13.290Z,27.30
2023-02-23T18:48:41.267Z,25.88
2023-02-23T18:51:12.395Z,28.50
2023-02-23T18:53:39.324Z,25.02
2023-02-23T18:56:16.222Z,25.25
2023-02-23T18:58:44.943Z,25.05
2023-02-23T19:01:20.586Z,20.58
2023-02-23T19:03:49.294Z,30.75
2023-02-23T19:06:17.911Z,26.45
2023-02-23T19:08:49.280Z,23.48
2023-02-23T19:13:43.388Z,28.70
2023-02-23T19:16:10.674Z,22.58
2023-02-23T19:18:37.549Z,23.17
2023-02-23T19:21:04.943Z,25.73
2023-02-23T19:23:31.901Z,23.65
2023-02-23T19:26:02.471Z,22.40
2023-02-23T19:28:30.215Z,28.00
2023-02-23T19:31:15.937Z,28.33
2023-02-23T19:33:43.550Z,25.90
2023-02-23T19:36:13.885Z,26.30
2023-02-23T19:38:45.741Z,25.48
2023-02-23T19:41:16.511Z,26.90
2023-02-23T19:43:43.774Z,23.27
2023-02-23T19:46:13.852Z,29.77
2023-02-23T19:48:40.818Z,26.67
2023-02-23T19:51:12.962Z,30.70
2023-02-23T19:53:40.183Z,26.73
2023-02-23T19:56:10.928Z,35.97
2023-02-23T19:58:38.315Z,30.45
2023-02-23T20:01:11.953Z,25.35
2023-02-23T20:03:43.346Z,29.00
2023-02-23T20:06:13.468Z,29.13
2023-02-23T20:08:42.227Z,28.25
2023-02-23T20:11:09.577Z,36.78
2023-02-23T20:13:38.670Z,28.65
2023-02-23T20:16:11.743Z,29.42
2023-02-23T20:18:40.222Z,25.35
2023-02-23T20:21:16.401Z,31.75
2023-02-23T20:23:44.661Z,27.27
2023-02-23T20:26:15.130Z,31.33
2023-02-23T20:28:42.338Z,31.85
2023-02-23T20:31:20.103Z,32.65
2023-02-23T20:33:50.837Z,31.38
2023-02-23T20:36:22.268Z,34.22
2023-02-23T20:38:49.233Z,33.28
2023-02-23T20:41:17.365Z,36.28
2023-02-23T20:43:44.935Z,34.50
2023-02-23T20:46:14.774Z,36.05
2023-02-23T20:48:42.671Z,38.72
2023-02-23T20:51:13.748Z,38.08
2023-02-23T20:53:42.025Z,41.22
2023-02-23T20:56:10.088Z,29.42
2023-02-23T20:58:37.207Z,36.15
2023-02-23T21:01:10.692Z,33.83
2023-02-23T21:03:37.680Z,34.20
2023-02-23T21:06:05.136Z,37.50
2023-02-23T21:08:32.176Z,35.58
2023-02-23T21:11:05.257Z,38.47
2023-02-23T21:13:34.030Z,38.25
2023-02-23T21:16:02.992Z,32.80
2023-02-23T21:18:31.386Z,33.88
2023-02-23T21:21:09.637Z,40.38
2023-02-23T21:23:38.589Z,38.60
2023-02-23T21:26:14.351Z,35.28
2023-02-23T21:28:46.614Z,36.47
2023-02-23T21:31:14.568Z,46.80
2023-02-23T21:33:43.483Z,37.55
2023-02-23T21:36:12.423Z,41.28
2023-02-23T21:38:42.472Z,46.22
2023-02-23T21:41:12.331Z,39.20
2023-02-23T21:43:41.278Z,41.25
2023-02-23T21:46:16.452Z,38.30
2023-02-23T21:48:43.966Z,43.75
2023-02-23T21:51:13.092Z,46.58
2023-02-23T21:53:40.965Z,47.17
2023-02-23T21:56:17.737Z,37.25
2023-02-23T21:58:50.982Z,43.85
2023-02-23T22:01:24.681Z,44.90
2023-02-23T22:03:54.763Z,36.80
2023-02-23T22:06:28.541Z,44.70
2023-02-23T22:08:56.689Z,44.80
2023-02-23T22:11:26.291Z,49.53
2023-02-23T22:13:59.335Z,40.22
2023-02-23T22:16:32.303Z,44.50
2023-02-23T22:19:03.644Z,42.13
2023-02-23T22:21:33.454Z,45.40
2023-02-23T22:24:01.700Z,43.15
2023-02-23T22:26:30.335Z,43.88
2023-02-23T22:28:57.328Z,43.65
2023-02-23T22:31:25.048Z,46.42
2023-02-23T22:33:52.181Z,46.78
2023-02-23T22:36:19.968Z,53.10
2023-02-23T22:38:46.905Z,46.45
2023-02-23T22:41:14.144Z,46.30
2023-02-23T22:43:46.126Z,49.08
2023-02-23T22:46:16.282Z,50.45
2023-02-23T22:48:45.066Z,47.13
2023-02-23T22:51:14.198Z,47.50
2023-02-23T22:53:41.336Z,48.05
2023-02-23T22:56:09.708Z,50.95
2023-02-23T22:58:36.987Z,50.60
2023-02-23T23:01:06.331Z,53.65
2023-02-23T23:03:47.991Z,51.05
2023-02-23T23:06:17.950Z,46.67
2023-02-23T23:08:45.757Z,56.47
2023-02-23T23:11:16.099Z,58.08
2023-02-23T23:13:46.526Z,56.33
2023-02-23T23:16:31.551Z,50.47
2023-02-23T23:19:02.890Z,54.38
2023-02-23T23:21:32.779Z,52.58
2023-02-23T23:24:05.675Z,54.22
2023-02-23T23:26:35.542Z,53.15
2023-02-23T23:29:07.894Z,53.85
2023-02-23T23:31:35.611Z,47.38
2023-02-23T23:34:06.040Z,50.78
2023-02-23T23:36:42.964Z,51.70
2023-02-23T23:39:16.330Z,51.00
2023-02-23T23:41:46.819Z,53.80
2023-02-23T23:44:19.126Z,53.08
2023-02-23T23:46:47.272Z,53.85
2023-02-23T23:49:17.255Z,51.60
2023-02-23T23:51:47.855Z,53.67
2023-02-23T23:54:18.055Z,55.15
2023-02-23T23:56:45.342Z,63.75
2023-02-23T23:59:17.638Z,51.33
